AAL354 KTPA-KORD
Flight info
| Callsign | AAL354 |
|---|---|
| Flight time | 2h 22m |
| Altitude | 34000 |
| Route | ENDED2 LACEN BRUTS Q118 KAILL/N0464F350 Q118 VOSTK/N0462F340 Q118 HEVAN BONNT VEECK5 |
| Aircraft | A321/M-SDE3FGHIRWY/LB1 |
Departure
| Time | 2026-05-06 02:19 |
|---|---|
| Airport | Tampa International Airport (KTPA) |
Arrival
| Time | 2026-05-06 04:41 |
|---|---|
| Airport | Chicago O'Hare International Airport (KORD) |
| Time | Latitude | Longitude | Altitude | Speed | Heading |
|---|---|---|---|---|---|
| 2026-05-06 02:01 | 27.97648 | -82.53832 | 43 ft | 0 kts | 34° |
| 2026-05-06 02:06 | 27.97636 | -82.53841 | 24 ft | 4 kts | 34° |
| 2026-05-06 02:07 | 27.97614 | -82.53857 | 43 ft | 3 kts | 34° |
| 2026-05-06 02:07 | 27.97596 | -82.53869 | 41 ft | 4 kts | 6° |
| 2026-05-06 02:07 | 27.97578 | -82.53862 | 42 ft | 3 kts | 303° |
| 2026-05-06 02:07 | 27.97567 | -82.53843 | 39 ft | 0 kts | 303° |
| 2026-05-06 02:09 | 27.97568 | -82.53844 | 42 ft | 1 kts | 303° |
| 2026-05-06 02:10 | 27.97570 | -82.53848 | 41 ft | 0 kts | 303° |
| 2026-05-06 02:10 | 27.97578 | -82.53862 | 43 ft | 7 kts | 303° |
| 2026-05-06 02:11 | 27.97589 | -82.53947 | 46 ft | 11 kts | 272° |
| 2026-05-06 02:11 | 27.97589 | -82.54035 | 47 ft | 11 kts | 258° |
| 2026-05-06 02:11 | 27.97527 | -82.54072 | 47 ft | 11 kts | 182° |
| 2026-05-06 02:11 | 27.97434 | -82.54075 | 48 ft | 18 kts | 182° |
| 2026-05-06 02:12 | 27.97288 | -82.54080 | 48 ft | 22 kts | 182° |
| 2026-05-06 02:12 | 27.97137 | -82.54085 | 49 ft | 22 kts | 182° |
| 2026-05-06 02:12 | 27.96986 | -82.54090 | 49 ft | 22 kts | 181° |
| 2026-05-06 02:12 | 27.96833 | -82.54095 | 49 ft | 22 kts | 181° |
| 2026-05-06 02:13 | 27.96677 | -82.54100 | 49 ft | 23 kts | 181° |
| 2026-05-06 02:13 | 27.96505 | -82.54107 | 48 ft | 23 kts | 182° |
| 2026-05-06 02:13 | 27.96361 | -82.54119 | 47 ft | 15 kts | 206° |
| 2026-05-06 02:13 | 27.96344 | -82.54201 | 44 ft | 10 kts | 285° |
| 2026-05-06 02:14 | 27.96388 | -82.54233 | 47 ft | 7 kts | 356° |
| 2026-05-06 02:14 | 27.96398 | -82.54233 | 47 ft | 0 kts | 1° |
| 2026-05-06 02:15 | 27.96465 | -82.54231 | 49 ft | 36 kts | 1° |
| 2026-05-06 02:15 | 27.96822 | -82.54219 | 51 ft | 14 kts | 2° |
| 2026-05-06 02:15 | 27.96855 | -82.54218 | 51 ft | 6 kts | 2° |
| 2026-05-06 02:15 | 27.96896 | -82.54211 | 52 ft | 6 kts | 21° |
| 2026-05-06 02:16 | 27.96918 | -82.54176 | 52 ft | 6 kts | 82° |
| 2026-05-06 02:16 | 27.96910 | -82.54119 | 50 ft | 9 kts | 113° |
| 2026-05-06 02:16 | 27.96848 | -82.54095 | 49 ft | 11 kts | 182° |
| 2026-05-06 02:16 | 27.96764 | -82.54098 | 49 ft | 14 kts | 181° |
| 2026-05-06 02:17 | 27.96645 | -82.54102 | 49 ft | 18 kts | 181° |
| 2026-05-06 02:17 | 27.96517 | -82.54106 | 48 ft | 19 kts | 181° |
| 2026-05-06 02:17 | 27.96386 | -82.54110 | 47 ft | 20 kts | 181° |
| 2026-05-06 02:17 | 27.96338 | -82.54183 | 47 ft | 11 kts | 271° |
| 2026-05-06 02:18 | 27.96380 | -82.54234 | 47 ft | 10 kts | 359° |
| 2026-05-06 02:18 | 27.96421 | -82.54232 | 48 ft | 0 kts | 2° |
| 2026-05-06 02:18 | 27.96447 | -82.54231 | 48 ft | 21 kts | 2° |
| 2026-05-06 02:18 | 27.96845 | -82.54218 | 51 ft | 91 kts | 2° |
| 2026-05-06 02:19 | 27.97689 | -82.54191 | 47 ft | 149 kts | 1° |
| 2026-05-06 02:19 | 27.98851 | -82.54153 | 273 ft | 175 kts | 0° |
| 2026-05-06 02:19 | 28.00076 | -82.54179 | 921 ft | 178 kts | 357° |
| 2026-05-06 02:19 | 28.01325 | -82.54277 | 1504 ft | 183 kts | 355° |
| 2026-05-06 02:20 | 28.03798 | -82.55568 | 2237 ft | 213 kts | 333° |
| 2026-05-06 02:20 | 28.05156 | -82.56389 | 2468 ft | 231 kts | 333° |
| 2026-05-06 02:20 | 28.06637 | -82.57269 | 2669 ft | 255 kts | 334° |
| 2026-05-06 02:21 | 28.08281 | -82.58253 | 3119 ft | 269 kts | 333° |
| 2026-05-06 02:21 | 28.09929 | -82.59248 | 3761 ft | 274 kts | 333° |
| 2026-05-06 02:21 | 28.11621 | -82.60279 | 4473 ft | 278 kts | 332° |
| 2026-05-06 02:21 | 28.13322 | -82.61326 | 5189 ft | 280 kts | 332° |
| 2026-05-06 02:22 | 28.15039 | -82.62388 | 5902 ft | 282 kts | 330° |
| 2026-05-06 02:22 | 28.16771 | -82.63458 | 6622 ft | 284 kts | 330° |
| 2026-05-06 02:22 | 28.18503 | -82.64528 | 7390 ft | 282 kts | 330° |
| 2026-05-06 02:22 | 28.20219 | -82.65588 | 8154 ft | 280 kts | 330° |
| 2026-05-06 02:23 | 28.21921 | -82.66642 | 8906 ft | 278 kts | 330° |
| 2026-05-06 02:23 | 28.23613 | -82.67691 | 9641 ft | 277 kts | 330° |
| 2026-05-06 02:23 | 28.25301 | -82.68735 | 10259 ft | 279 kts | 330° |
| 2026-05-06 02:23 | 28.27072 | -82.69831 | 10387 ft | 299 kts | 330° |
| 2026-05-06 02:24 | 28.28953 | -82.70997 | 10504 ft | 317 kts | 330° |
| 2026-05-06 02:24 | 28.30946 | -82.72234 | 10620 ft | 335 kts | 330° |
| 2026-05-06 02:24 | 28.33039 | -82.73530 | 10747 ft | 350 kts | 330° |
| 2026-05-06 02:24 | 28.35206 | -82.74870 | 11095 ft | 358 kts | 330° |
| 2026-05-06 02:25 | 28.37403 | -82.76227 | 11580 ft | 361 kts | 331° |
| 2026-05-06 02:25 | 28.39623 | -82.77572 | 12087 ft | 363 kts | 334° |
| 2026-05-06 02:25 | 28.42008 | -82.78548 | 12593 ft | 367 kts | 345° |
| 2026-05-06 02:25 | 28.44542 | -82.79045 | 13102 ft | 371 kts | 350° |
| 2026-05-06 02:26 | 28.47098 | -82.79460 | 13647 ft | 373 kts | 350° |
| 2026-05-06 02:26 | 28.49676 | -82.79878 | 14140 ft | 375 kts | 350° |
| 2026-05-06 02:26 | 28.52271 | -82.80299 | 14615 ft | 378 kts | 350° |
| 2026-05-06 02:26 | 28.54886 | -82.80722 | 15085 ft | 380 kts | 349° |
| 2026-05-06 02:27 | 28.57515 | -82.81147 | 15571 ft | 383 kts | 349° |
| 2026-05-06 02:27 | 28.60162 | -82.81592 | 16041 ft | 385 kts | 349° |
| 2026-05-06 02:27 | 28.62814 | -82.82062 | 16526 ft | 388 kts | 348° |
| 2026-05-06 02:27 | 28.65489 | -82.82551 | 17008 ft | 390 kts | 348° |
| 2026-05-06 02:28 | 28.68178 | -82.83047 | 17470 ft | 393 kts | 348° |
| 2026-05-06 02:28 | 28.70883 | -82.83547 | 17929 ft | 395 kts | 348° |
| 2026-05-06 02:28 | 28.73611 | -82.84044 | 18373 ft | 398 kts | 348° |
| 2026-05-06 02:28 | 28.76352 | -82.84537 | 18747 ft | 400 kts | 348° |
| 2026-05-06 02:29 | 28.79107 | -82.85036 | 19133 ft | 402 kts | 348° |
| 2026-05-06 02:29 | 28.81878 | -82.85540 | 19495 ft | 404 kts | 348° |
| 2026-05-06 02:29 | 28.84654 | -82.86047 | 19871 ft | 405 kts | 347° |
| 2026-05-06 02:29 | 28.87449 | -82.86560 | 20234 ft | 407 kts | 347° |
| 2026-05-06 02:30 | 28.89298 | -82.86898 | 20459 ft | 408 kts | 347° |
| 2026-05-06 02:30 | 28.92109 | -82.87407 | 20815 ft | 410 kts | 347° |
| 2026-05-06 02:30 | 28.94936 | -82.87917 | 21156 ft | 412 kts | 347° |
| 2026-05-06 02:30 | 28.97770 | -82.88428 | 21472 ft | 413 kts | 347° |
| 2026-05-06 02:31 | 29.00615 | -82.88940 | 21791 ft | 415 kts | 347° |
| 2026-05-06 02:31 | 29.03477 | -82.89455 | 22103 ft | 417 kts | 347° |
| 2026-05-06 02:31 | 29.06346 | -82.89972 | 22432 ft | 418 kts | 347° |
| 2026-05-06 02:31 | 29.09227 | -82.90494 | 22721 ft | 420 kts | 347° |
| 2026-05-06 02:32 | 29.12126 | -82.91023 | 23030 ft | 422 kts | 347° |
| 2026-05-06 02:32 | 29.15038 | -82.91554 | 23317 ft | 424 kts | 347° |
| 2026-05-06 02:32 | 29.17957 | -82.92088 | 23612 ft | 426 kts | 347° |
| 2026-05-06 02:32 | 29.20889 | -82.92626 | 23864 ft | 428 kts | 347° |
| 2026-05-06 02:33 | 29.23834 | -82.93168 | 24130 ft | 429 kts | 347° |
| 2026-05-06 02:33 | 29.25785 | -82.93526 | 24305 ft | 429 kts | 347° |
| 2026-05-06 02:34 | 29.35672 | -82.95323 | 25186 ft | 433 kts | 347° |
| 2026-05-06 02:34 | 29.38647 | -82.95868 | 25434 ft | 434 kts | 346° |
| 2026-05-06 02:34 | 29.41633 | -82.96418 | 25701 ft | 435 kts | 346° |
| 2026-05-06 02:34 | 29.44623 | -82.96969 | 25962 ft | 436 kts | 346° |
| 2026-05-06 02:35 | 29.47619 | -82.97519 | 26227 ft | 437 kts | 346° |
| 2026-05-06 02:35 | 29.50614 | -82.98107 | 26496 ft | 436 kts | 343° |
| 2026-05-06 02:35 | 29.53495 | -82.99137 | 26753 ft | 432 kts | 334° |
| 2026-05-06 02:35 | 29.56237 | -83.00448 | 27010 ft | 433 kts | 334° |
| 2026-05-06 02:36 | 29.59016 | -83.01776 | 27303 ft | 432 kts | 334° |
| 2026-05-06 02:36 | 29.61792 | -83.03099 | 27670 ft | 430 kts | 334° |
| 2026-05-06 02:36 | 29.64552 | -83.04410 | 28063 ft | 428 kts | 334° |
| 2026-05-06 02:36 | 29.67302 | -83.05714 | 28474 ft | 426 kts | 334° |
| 2026-05-06 02:37 | 29.70034 | -83.07012 | 28871 ft | 423 kts | 334° |
| 2026-05-06 02:37 | 29.72750 | -83.08304 | 29276 ft | 421 kts | 333° |
| 2026-05-06 02:37 | 29.75440 | -83.09590 | 29671 ft | 419 kts | 333° |
| 2026-05-06 02:37 | 29.78124 | -83.10879 | 30061 ft | 417 kts | 333° |
| 2026-05-06 02:38 | 29.80793 | -83.12158 | 30390 ft | 415 kts | 333° |
| 2026-05-06 02:38 | 29.83451 | -83.13430 | 30711 ft | 413 kts | 333° |
| 2026-05-06 02:38 | 29.86105 | -83.14698 | 31023 ft | 412 kts | 333° |
| 2026-05-06 02:38 | 29.88744 | -83.15963 | 31318 ft | 411 kts | 333° |
| 2026-05-06 02:39 | 29.91387 | -83.17234 | 31549 ft | 411 kts | 333° |
| 2026-05-06 02:39 | 29.94029 | -83.18503 | 31856 ft | 410 kts | 332° |
| 2026-05-06 02:39 | 29.96656 | -83.19764 | 32203 ft | 408 kts | 332° |
| 2026-05-06 02:39 | 29.99268 | -83.21017 | 32539 ft | 406 kts | 332° |
| 2026-05-06 02:40 | 30.01867 | -83.22264 | 32848 ft | 404 kts | 332° |
| 2026-05-06 02:40 | 30.04460 | -83.23511 | 33147 ft | 402 kts | 332° |
| 2026-05-06 02:40 | 30.07040 | -83.24753 | 33441 ft | 401 kts | 332° |
| 2026-05-06 02:40 | 30.09581 | -83.25975 | 33729 ft | 400 kts | 332° |
| 2026-05-06 02:41 | 30.12144 | -83.27211 | 34003 ft | 399 kts | 332° |
| 2026-05-06 02:41 | 30.17299 | -83.29703 | 34076 ft | 399 kts | 332° |
| 2026-05-06 02:42 | 30.22383 | -83.32157 | 34068 ft | 399 kts | 332° |
| 2026-05-06 02:42 | 30.27495 | -83.34623 | 34083 ft | 397 kts | 331° |
| 2026-05-06 02:43 | 30.32599 | -83.37087 | 34062 ft | 397 kts | 331° |
| 2026-05-06 02:43 | 30.37699 | -83.39550 | 34085 ft | 397 kts | 331° |
| 2026-05-06 02:44 | 30.42808 | -83.42023 | 34082 ft | 398 kts | 331° |
| 2026-05-06 02:44 | 30.47920 | -83.44502 | 34091 ft | 398 kts | 331° |
| 2026-05-06 02:45 | 30.53032 | -83.46986 | 34088 ft | 398 kts | 331° |
| 2026-05-06 02:45 | 30.58143 | -83.49473 | 34087 ft | 398 kts | 331° |
| 2026-05-06 02:46 | 30.63252 | -83.51952 | 34087 ft | 398 kts | 331° |
| 2026-05-06 02:46 | 30.68362 | -83.54439 | 34079 ft | 399 kts | 331° |
| 2026-05-06 02:47 | 30.73490 | -83.56942 | 34083 ft | 400 kts | 331° |
| 2026-05-06 02:47 | 30.78618 | -83.59442 | 34093 ft | 400 kts | 331° |
| 2026-05-06 02:48 | 30.83752 | -83.61949 | 34120 ft | 400 kts | 331° |
| 2026-05-06 02:48 | 30.88875 | -83.64454 | 34118 ft | 399 kts | 331° |
| 2026-05-06 02:49 | 30.93994 | -83.66967 | 34102 ft | 399 kts | 331° |
| 2026-05-06 02:49 | 30.99108 | -83.69476 | 34098 ft | 399 kts | 331° |
| 2026-05-06 02:50 | 31.04225 | -83.71984 | 34084 ft | 399 kts | 331° |
| 2026-05-06 02:50 | 31.09315 | -83.74480 | 34107 ft | 399 kts | 331° |
| 2026-05-06 02:51 | 31.14426 | -83.76993 | 34098 ft | 399 kts | 330° |
| 2026-05-06 02:51 | 31.19542 | -83.79511 | 34095 ft | 398 kts | 330° |
| 2026-05-06 02:52 | 31.24649 | -83.82032 | 34094 ft | 398 kts | 330° |
| 2026-05-06 02:52 | 31.29747 | -83.84558 | 34086 ft | 398 kts | 330° |
| 2026-05-06 02:53 | 31.34847 | -83.87083 | 34078 ft | 398 kts | 330° |
| 2026-05-06 02:53 | 31.39949 | -83.89603 | 34098 ft | 398 kts | 330° |
| 2026-05-06 02:54 | 31.45052 | -83.92130 | 34091 ft | 398 kts | 330° |
| 2026-05-06 02:54 | 31.50158 | -83.94674 | 34079 ft | 399 kts | 330° |
| 2026-05-06 02:55 | 31.55568 | -83.96474 | 34073 ft | 411 kts | 341° |
| 2026-05-06 02:55 | 31.61186 | -83.97709 | 34074 ft | 411 kts | 341° |
| 2026-05-06 02:56 | 31.66809 | -83.98953 | 34086 ft | 411 kts | 340° |
| 2026-05-06 02:56 | 31.72432 | -84.00205 | 34080 ft | 411 kts | 341° |
| 2026-05-06 02:57 | 31.78055 | -84.01455 | 34077 ft | 411 kts | 340° |
| 2026-05-06 02:57 | 31.83681 | -84.02713 | 34073 ft | 411 kts | 340° |
| 2026-05-06 02:58 | 31.89307 | -84.03970 | 34071 ft | 411 kts | 340° |
| 2026-05-06 02:58 | 31.94927 | -84.05226 | 34084 ft | 411 kts | 340° |
| 2026-05-06 02:59 | 32.00545 | -84.06481 | 34066 ft | 410 kts | 340° |
| 2026-05-06 02:59 | 32.06148 | -84.07738 | 34055 ft | 410 kts | 340° |
| 2026-05-06 03:00 | 32.11757 | -84.08990 | 34044 ft | 410 kts | 340° |
| 2026-05-06 03:00 | 32.17354 | -84.10249 | 34044 ft | 409 kts | 340° |
| 2026-05-06 03:01 | 32.22915 | -84.11500 | 34072 ft | 409 kts | 340° |
| 2026-05-06 03:01 | 32.28504 | -84.12759 | 34062 ft | 408 kts | 340° |
| 2026-05-06 03:02 | 32.34085 | -84.14018 | 34057 ft | 408 kts | 340° |
| 2026-05-06 03:02 | 32.39661 | -84.15276 | 34058 ft | 408 kts | 340° |
| 2026-05-06 03:03 | 32.45240 | -84.16531 | 34056 ft | 407 kts | 340° |
| 2026-05-06 03:03 | 32.50808 | -84.17791 | 34078 ft | 407 kts | 340° |
| 2026-05-06 03:04 | 32.56368 | -84.19049 | 34066 ft | 406 kts | 340° |
| 2026-05-06 03:04 | 32.61918 | -84.20306 | 34065 ft | 406 kts | 340° |
| 2026-05-06 03:05 | 32.67466 | -84.21563 | 34063 ft | 405 kts | 340° |
| 2026-05-06 03:05 | 32.73008 | -84.22826 | 34068 ft | 405 kts | 340° |
| 2026-05-06 03:06 | 32.78507 | -84.24080 | 34061 ft | 404 kts | 340° |
| 2026-05-06 03:06 | 32.84013 | -84.25339 | 34068 ft | 403 kts | 340° |
| 2026-05-06 03:07 | 32.89521 | -84.26605 | 34072 ft | 403 kts | 340° |
| 2026-05-06 03:07 | 32.95031 | -84.27863 | 34071 ft | 404 kts | 340° |
| 2026-05-06 03:08 | 33.00551 | -84.29112 | 34067 ft | 405 kts | 339° |
| 2026-05-06 03:08 | 33.06091 | -84.30388 | 34037 ft | 405 kts | 339° |
| 2026-05-06 03:09 | 33.11623 | -84.31657 | 34049 ft | 405 kts | 339° |
| 2026-05-06 03:09 | 33.17156 | -84.32922 | 34052 ft | 405 kts | 339° |
| 2026-05-06 03:10 | 33.22679 | -84.34195 | 34059 ft | 404 kts | 339° |
| 2026-05-06 03:10 | 33.28209 | -84.35470 | 34070 ft | 405 kts | 339° |
| 2026-05-06 03:11 | 33.33736 | -84.36746 | 34080 ft | 405 kts | 339° |
| 2026-05-06 03:11 | 33.39269 | -84.38021 | 34038 ft | 405 kts | 339° |
| 2026-05-06 03:12 | 33.44799 | -84.39303 | 34038 ft | 404 kts | 339° |
| 2026-05-06 03:12 | 33.50323 | -84.40586 | 34040 ft | 405 kts | 339° |
| 2026-05-06 03:13 | 33.54920 | -84.41654 | 34042 ft | 405 kts | 339° |
| 2026-05-06 03:13 | 33.61348 | -84.43146 | 34064 ft | 405 kts | 339° |
| 2026-05-06 03:14 | 33.66886 | -84.44410 | 34059 ft | 405 kts | 340° |
| 2026-05-06 03:14 | 33.72444 | -84.45619 | 34056 ft | 406 kts | 340° |
| 2026-05-06 03:15 | 33.77063 | -84.46622 | 34044 ft | 406 kts | 340° |
| 2026-05-06 03:15 | 33.82623 | -84.47834 | 34042 ft | 406 kts | 340° |
| 2026-05-06 03:16 | 33.88178 | -84.49059 | 34042 ft | 406 kts | 340° |
| 2026-05-06 03:16 | 33.93734 | -84.50290 | 34031 ft | 406 kts | 340° |
| 2026-05-06 03:17 | 33.99299 | -84.51526 | 34053 ft | 406 kts | 340° |
| 2026-05-06 03:17 | 34.04907 | -84.52553 | 34050 ft | 413 kts | 345° |
| 2026-05-06 03:18 | 34.10636 | -84.53145 | 34077 ft | 413 kts | 345° |
| 2026-05-06 03:18 | 34.16361 | -84.53737 | 34057 ft | 413 kts | 345° |
| 2026-05-06 03:19 | 34.22087 | -84.54333 | 34060 ft | 413 kts | 345° |
| 2026-05-06 03:19 | 34.27806 | -84.54933 | 34059 ft | 413 kts | 345° |
| 2026-05-06 03:20 | 34.36388 | -84.55835 | 34074 ft | 412 kts | 345° |
| 2026-05-06 03:20 | 34.42105 | -84.56432 | 34055 ft | 412 kts | 345° |
| 2026-05-06 03:21 | 34.47816 | -84.57039 | 34006 ft | 412 kts | 345° |
| 2026-05-06 03:21 | 34.53525 | -84.57644 | 33998 ft | 412 kts | 345° |
| 2026-05-06 03:22 | 34.59237 | -84.58246 | 34000 ft | 412 kts | 345° |
| 2026-05-06 03:22 | 34.64947 | -84.58848 | 34027 ft | 412 kts | 344° |
| 2026-05-06 03:23 | 34.70659 | -84.59453 | 34014 ft | 412 kts | 344° |
| 2026-05-06 03:23 | 34.76361 | -84.60056 | 34008 ft | 411 kts | 344° |
| 2026-05-06 03:24 | 34.82059 | -84.60664 | 33999 ft | 411 kts | 344° |
| 2026-05-06 03:24 | 34.87764 | -84.61272 | 34024 ft | 412 kts | 344° |
| 2026-05-06 03:25 | 34.93473 | -84.61881 | 34005 ft | 412 kts | 344° |
| 2026-05-06 03:25 | 34.99182 | -84.62480 | 33993 ft | 411 kts | 344° |
| 2026-05-06 03:26 | 35.04877 | -84.63086 | 33984 ft | 411 kts | 344° |
| 2026-05-06 03:26 | 35.10570 | -84.63702 | 33974 ft | 410 kts | 344° |
| 2026-05-06 03:27 | 35.16257 | -84.64318 | 33989 ft | 409 kts | 344° |
| 2026-05-06 03:27 | 35.21933 | -84.64926 | 33985 ft | 409 kts | 344° |
| 2026-05-06 03:28 | 35.27574 | -84.65528 | 33980 ft | 410 kts | 344° |
| 2026-05-06 03:28 | 35.33256 | -84.66130 | 34002 ft | 410 kts | 344° |
| 2026-05-06 03:29 | 35.38932 | -84.66743 | 34052 ft | 409 kts | 343° |
| 2026-05-06 03:29 | 35.44635 | -84.67370 | 34005 ft | 412 kts | 343° |
| 2026-05-06 03:30 | 35.50341 | -84.67983 | 33997 ft | 412 kts | 343° |
| 2026-05-06 03:30 | 35.56047 | -84.68596 | 33982 ft | 411 kts | 343° |
| 2026-05-06 03:31 | 35.61750 | -84.69215 | 33969 ft | 411 kts | 343° |
| 2026-05-06 03:31 | 35.67449 | -84.69837 | 33967 ft | 412 kts | 343° |
| 2026-05-06 03:32 | 35.73165 | -84.70459 | 33950 ft | 412 kts | 343° |
| 2026-05-06 03:32 | 35.78884 | -84.71086 | 33923 ft | 413 kts | 343° |
| 2026-05-06 03:33 | 35.84608 | -84.71703 | 33925 ft | 413 kts | 343° |
| 2026-05-06 03:33 | 35.90339 | -84.72325 | 33992 ft | 414 kts | 343° |
| 2026-05-06 03:34 | 35.96070 | -84.72949 | 33988 ft | 413 kts | 343° |
| 2026-05-06 03:34 | 36.01801 | -84.73583 | 33985 ft | 414 kts | 343° |
| 2026-05-06 03:35 | 36.07538 | -84.74217 | 33976 ft | 414 kts | 343° |
| 2026-05-06 03:35 | 36.13273 | -84.74845 | 33973 ft | 414 kts | 343° |
| 2026-05-06 03:36 | 36.19025 | -84.75472 | 33940 ft | 416 kts | 343° |
| 2026-05-06 03:36 | 36.24804 | -84.76112 | 33916 ft | 417 kts | 343° |
| 2026-05-06 03:37 | 36.30597 | -84.76758 | 33914 ft | 419 kts | 343° |
| 2026-05-06 03:37 | 36.36368 | -84.77396 | 33924 ft | 419 kts | 343° |
| 2026-05-06 03:38 | 36.42235 | -84.78011 | 33939 ft | 425 kts | 347° |
| 2026-05-06 03:38 | 36.48217 | -84.77877 | 33928 ft | 431 kts | 349° |
| 2026-05-06 03:39 | 36.54187 | -84.77691 | 33923 ft | 432 kts | 349° |
| 2026-05-06 03:39 | 36.60205 | -84.77511 | 33909 ft | 433 kts | 349° |
| 2026-05-06 03:40 | 36.66228 | -84.77331 | 33935 ft | 434 kts | 349° |
| 2026-05-06 03:40 | 36.72278 | -84.77157 | 33920 ft | 435 kts | 349° |
| 2026-05-06 03:41 | 36.78334 | -84.76983 | 33924 ft | 436 kts | 349° |
| 2026-05-06 03:41 | 36.84405 | -84.76813 | 33924 ft | 436 kts | 349° |
| 2026-05-06 03:42 | 36.90475 | -84.76645 | 33948 ft | 437 kts | 349° |
| 2026-05-06 03:42 | 36.96558 | -84.76466 | 33934 ft | 438 kts | 349° |
| 2026-05-06 03:43 | 37.02648 | -84.76278 | 33891 ft | 438 kts | 349° |
| 2026-05-06 03:43 | 37.08745 | -84.76096 | 33891 ft | 438 kts | 349° |
| 2026-05-06 03:44 | 37.14850 | -84.75924 | 33916 ft | 439 kts | 349° |
| 2026-05-06 03:44 | 37.20961 | -84.75743 | 33905 ft | 439 kts | 349° |
| 2026-05-06 03:45 | 37.27040 | -84.75562 | 33888 ft | 440 kts | 349° |
| 2026-05-06 03:45 | 37.33202 | -84.75380 | 33884 ft | 440 kts | 349° |
| 2026-05-06 03:46 | 37.39336 | -84.75186 | 33905 ft | 441 kts | 349° |
| 2026-05-06 03:46 | 37.45475 | -84.74980 | 33901 ft | 442 kts | 349° |
| 2026-05-06 03:47 | 37.51585 | -84.74770 | 33904 ft | 442 kts | 349° |
| 2026-05-06 03:47 | 37.57744 | -84.74565 | 33902 ft | 442 kts | 349° |
| 2026-05-06 03:48 | 37.63897 | -84.74367 | 33903 ft | 442 kts | 349° |
| 2026-05-06 03:48 | 37.70050 | -84.74167 | 33889 ft | 443 kts | 349° |
| 2026-05-06 03:49 | 37.76206 | -84.73974 | 33880 ft | 443 kts | 349° |
| 2026-05-06 03:49 | 37.82373 | -84.73782 | 33864 ft | 443 kts | 349° |
| 2026-05-06 03:50 | 37.88546 | -84.73593 | 33866 ft | 444 kts | 349° |
| 2026-05-06 03:50 | 37.94727 | -84.73405 | 33840 ft | 444 kts | 349° |
| 2026-05-06 03:51 | 38.00917 | -84.73216 | 33905 ft | 445 kts | 349° |
| 2026-05-06 03:51 | 38.07102 | -84.73026 | 33902 ft | 445 kts | 349° |
| 2026-05-06 03:52 | 38.13311 | -84.72835 | 33882 ft | 446 kts | 349° |
| 2026-05-06 03:52 | 38.19526 | -84.72639 | 33862 ft | 447 kts | 349° |
| 2026-05-06 03:53 | 38.25755 | -84.72444 | 33860 ft | 448 kts | 349° |
| 2026-05-06 03:53 | 38.31991 | -84.72249 | 33854 ft | 448 kts | 349° |
| 2026-05-06 03:54 | 38.38194 | -84.72057 | 33845 ft | 448 kts | 349° |
| 2026-05-06 03:54 | 38.44429 | -84.71883 | 33837 ft | 445 kts | 347° |
| 2026-05-06 03:55 | 38.47453 | -84.72259 | 33832 ft | 430 kts | 338° |
| 2026-05-06 03:55 | 38.50300 | -84.73219 | 33828 ft | 417 kts | 329° |
| 2026-05-06 03:55 | 38.55734 | -84.75759 | 33861 ft | 416 kts | 329° |
| 2026-05-06 03:56 | 38.61178 | -84.78289 | 33848 ft | 417 kts | 329° |
| 2026-05-06 03:56 | 38.66640 | -84.80814 | 33845 ft | 417 kts | 329° |
| 2026-05-06 03:57 | 38.72100 | -84.83341 | 33844 ft | 417 kts | 329° |
| 2026-05-06 03:57 | 38.77565 | -84.85876 | 33849 ft | 417 kts | 329° |
| 2026-05-06 03:58 | 38.82971 | -84.88392 | 33837 ft | 415 kts | 329° |
| 2026-05-06 03:58 | 38.88392 | -84.90931 | 33834 ft | 415 kts | 329° |
| 2026-05-06 03:59 | 38.93826 | -84.93471 | 33841 ft | 416 kts | 329° |
| 2026-05-06 03:59 | 38.98383 | -84.95606 | 33839 ft | 416 kts | 329° |
| 2026-05-06 04:00 | 39.03787 | -84.98135 | 33879 ft | 416 kts | 328° |
| 2026-05-06 04:00 | 39.09267 | -85.00699 | 33879 ft | 416 kts | 328° |
| 2026-05-06 04:01 | 39.14704 | -85.03256 | 33893 ft | 416 kts | 328° |
| 2026-05-06 04:01 | 39.20105 | -85.05806 | 33896 ft | 416 kts | 328° |
| 2026-05-06 04:02 | 39.25535 | -85.08369 | 33936 ft | 416 kts | 328° |
| 2026-05-06 04:02 | 39.30941 | -85.10921 | 33876 ft | 412 kts | 328° |
| 2026-05-06 04:03 | 39.36326 | -85.13474 | 33871 ft | 412 kts | 328° |
| 2026-05-06 04:03 | 39.41717 | -85.16025 | 33886 ft | 413 kts | 328° |
| 2026-05-06 04:04 | 39.47118 | -85.18585 | 33888 ft | 413 kts | 328° |
| 2026-05-06 04:04 | 39.52513 | -85.21152 | 33922 ft | 413 kts | 328° |
| 2026-05-06 04:05 | 39.57916 | -85.23728 | 33921 ft | 414 kts | 328° |
| 2026-05-06 04:05 | 39.63319 | -85.26303 | 33913 ft | 414 kts | 328° |
| 2026-05-06 04:06 | 39.68721 | -85.28881 | 33911 ft | 414 kts | 328° |
| 2026-05-06 04:06 | 39.74124 | -85.31464 | 33912 ft | 413 kts | 327° |
| 2026-05-06 04:07 | 39.79511 | -85.34052 | 33910 ft | 413 kts | 327° |
| 2026-05-06 04:07 | 39.84904 | -85.36649 | 33909 ft | 414 kts | 327° |
| 2026-05-06 04:08 | 39.90309 | -85.39243 | 33911 ft | 414 kts | 327° |
| 2026-05-06 04:08 | 39.95711 | -85.41842 | 33951 ft | 414 kts | 327° |
| 2026-05-06 04:09 | 40.01074 | -85.44430 | 33919 ft | 412 kts | 327° |
| 2026-05-06 04:09 | 40.06456 | -85.47029 | 33722 ft | 412 kts | 327° |
| 2026-05-06 04:10 | 40.09144 | -85.48326 | 33481 ft | 413 kts | 327° |
| 2026-05-06 04:10 | 40.11844 | -85.49627 | 33222 ft | 413 kts | 327° |
| 2026-05-06 04:10 | 40.14542 | -85.50935 | 32960 ft | 414 kts | 327° |
| 2026-05-06 04:10 | 40.17244 | -85.52252 | 32726 ft | 415 kts | 327° |
| 2026-05-06 04:11 | 40.19954 | -85.53576 | 32472 ft | 416 kts | 327° |
| 2026-05-06 04:11 | 40.22664 | -85.54902 | 32210 ft | 417 kts | 327° |
| 2026-05-06 04:11 | 40.25383 | -85.56228 | 31949 ft | 418 kts | 328° |
| 2026-05-06 04:11 | 40.28113 | -85.57557 | 31707 ft | 419 kts | 328° |
| 2026-05-06 04:12 | 40.30851 | -85.58889 | 31456 ft | 420 kts | 328° |
| 2026-05-06 04:12 | 40.33591 | -85.60225 | 31217 ft | 421 kts | 328° |
| 2026-05-06 04:12 | 40.36335 | -85.61564 | 30970 ft | 422 kts | 328° |
| 2026-05-06 04:12 | 40.39091 | -85.62913 | 30732 ft | 423 kts | 328° |
| 2026-05-06 04:13 | 40.41851 | -85.64265 | 30551 ft | 424 kts | 328° |
| 2026-05-06 04:13 | 40.44619 | -85.65622 | 30311 ft | 426 kts | 328° |
| 2026-05-06 04:13 | 40.47397 | -85.66980 | 30076 ft | 427 kts | 328° |
| 2026-05-06 04:13 | 40.50196 | -85.68326 | 29815 ft | 430 kts | 329° |
| 2026-05-06 04:14 | 40.53049 | -85.69561 | 29534 ft | 435 kts | 332° |
| 2026-05-06 04:14 | 40.55963 | -85.70700 | 29255 ft | 439 kts | 333° |
| 2026-05-06 04:14 | 40.58912 | -85.71785 | 28981 ft | 441 kts | 333° |
| 2026-05-06 04:14 | 40.61880 | -85.72856 | 28707 ft | 443 kts | 334° |
| 2026-05-06 04:15 | 40.64858 | -85.73946 | 28435 ft | 445 kts | 333° |
| 2026-05-06 04:15 | 40.67840 | -85.75070 | 28157 ft | 446 kts | 333° |
| 2026-05-06 04:15 | 40.70784 | -85.76210 | 27934 ft | 448 kts | 333° |
| 2026-05-06 04:15 | 40.73770 | -85.77383 | 27909 ft | 448 kts | 333° |
| 2026-05-06 04:16 | 40.76764 | -85.78575 | 27913 ft | 448 kts | 332° |
| 2026-05-06 04:16 | 40.79716 | -85.79864 | 27913 ft | 446 kts | 330° |
| 2026-05-06 04:16 | 40.82633 | -85.81250 | 27909 ft | 444 kts | 329° |
| 2026-05-06 04:16 | 40.85527 | -85.82687 | 27903 ft | 445 kts | 329° |
| 2026-05-06 04:17 | 40.88421 | -85.84146 | 27909 ft | 445 kts | 329° |
| 2026-05-06 04:17 | 40.91324 | -85.85602 | 27903 ft | 446 kts | 329° |
| 2026-05-06 04:17 | 40.94236 | -85.87041 | 27907 ft | 447 kts | 329° |
| 2026-05-06 04:17 | 40.97152 | -85.88459 | 27906 ft | 447 kts | 330° |
| 2026-05-06 04:18 | 41.00080 | -85.89867 | 27908 ft | 447 kts | 330° |
| 2026-05-06 04:18 | 41.03007 | -85.91265 | 27909 ft | 447 kts | 330° |
| 2026-05-06 04:18 | 41.05940 | -85.92663 | 27911 ft | 447 kts | 330° |
| 2026-05-06 04:18 | 41.08873 | -85.94067 | 27902 ft | 450 kts | 330° |
| 2026-05-06 04:19 | 41.11821 | -85.95492 | 27916 ft | 451 kts | 330° |
| 2026-05-06 04:19 | 41.14774 | -85.96925 | 27911 ft | 451 kts | 330° |
| 2026-05-06 04:19 | 41.17732 | -85.98365 | 27911 ft | 452 kts | 330° |
| 2026-05-06 04:19 | 41.20618 | -85.99835 | 27910 ft | 446 kts | 326° |
| 2026-05-06 04:20 | 41.23262 | -86.01858 | 27919 ft | 432 kts | 315° |
| 2026-05-06 04:20 | 41.25498 | -86.04426 | 27919 ft | 420 kts | 305° |
| 2026-05-06 04:20 | 41.27296 | -86.07416 | 27911 ft | 410 kts | 296° |
| 2026-05-06 04:20 | 41.28647 | -86.10709 | 27936 ft | 404 kts | 287° |
| 2026-05-06 04:21 | 41.29548 | -86.14224 | 27907 ft | 401 kts | 278° |
| 2026-05-06 04:21 | 41.30039 | -86.17864 | 27919 ft | 399 kts | 275° |
| 2026-05-06 04:21 | 41.30465 | -86.21513 | 27908 ft | 400 kts | 274° |
| 2026-05-06 04:21 | 41.30892 | -86.25173 | 27910 ft | 400 kts | 274° |
| 2026-05-06 04:22 | 41.31318 | -86.28830 | 27910 ft | 400 kts | 274° |
| 2026-05-06 04:22 | 41.31744 | -86.32488 | 27911 ft | 400 kts | 274° |
| 2026-05-06 04:22 | 41.32168 | -86.36151 | 27913 ft | 400 kts | 274° |
| 2026-05-06 04:23 | 41.33016 | -86.43486 | 27916 ft | 400 kts | 274° |
| 2026-05-06 04:23 | 41.33436 | -86.47145 | 27915 ft | 400 kts | 274° |
| 2026-05-06 04:23 | 41.33867 | -86.50802 | 27914 ft | 401 kts | 276° |
| 2026-05-06 04:23 | 41.34566 | -86.54413 | 27915 ft | 406 kts | 283° |
| 2026-05-06 04:24 | 41.35636 | -86.57912 | 27929 ft | 412 kts | 290° |
| 2026-05-06 04:24 | 41.36946 | -86.61306 | 27910 ft | 412 kts | 290° |
| 2026-05-06 04:24 | 41.38302 | -86.64687 | 27670 ft | 416 kts | 295° |
| 2026-05-06 04:24 | 41.40065 | -86.67804 | 27410 ft | 428 kts | 305° |
| 2026-05-06 04:25 | 41.42323 | -86.70480 | 27154 ft | 443 kts | 316° |
| 2026-05-06 04:25 | 41.44990 | -86.72552 | 26901 ft | 457 kts | 325° |
| 2026-05-06 04:25 | 41.47849 | -86.74417 | 26651 ft | 459 kts | 325° |
| 2026-05-06 04:25 | 41.50729 | -86.76272 | 26397 ft | 463 kts | 327° |
| 2026-05-06 04:26 | 41.53786 | -86.77761 | 25611 ft | 476 kts | 335° |
| 2026-05-06 04:26 | 41.57113 | -86.78575 | 24411 ft | 498 kts | 347° |
| 2026-05-06 04:26 | 41.60640 | -86.78874 | 23516 ft | 501 kts | 348° |
| 2026-05-06 04:26 | 41.64111 | -86.79164 | 22604 ft | 498 kts | 348° |
| 2026-05-06 04:27 | 41.67500 | -86.79477 | 21845 ft | 491 kts | 348° |
| 2026-05-06 04:27 | 41.70880 | -86.79862 | 21066 ft | 484 kts | 347° |
| 2026-05-06 04:27 | 41.74208 | -86.80302 | 20326 ft | 477 kts | 347° |
| 2026-05-06 04:27 | 41.77482 | -86.80766 | 19632 ft | 469 kts | 346° |
| 2026-05-06 04:28 | 41.80709 | -86.81358 | 18932 ft | 462 kts | 344° |
| 2026-05-06 04:28 | 41.83814 | -86.82192 | 18282 ft | 447 kts | 336° |
| 2026-05-06 04:28 | 41.86628 | -86.83777 | 17451 ft | 432 kts | 325° |
| 2026-05-06 04:28 | 41.89124 | -86.85923 | 16719 ft | 419 kts | 317° |
| 2026-05-06 04:29 | 41.91338 | -86.88369 | 16155 ft | 407 kts | 314° |
| 2026-05-06 04:29 | 41.93500 | -86.90773 | 15583 ft | 400 kts | 315° |
| 2026-05-06 04:29 | 41.95637 | -86.93130 | 15023 ft | 395 kts | 315° |
| 2026-05-06 04:29 | 41.97750 | -86.95461 | 14468 ft | 390 kts | 315° |
| 2026-05-06 04:30 | 41.99791 | -86.97816 | 13888 ft | 383 kts | 310° |
| 2026-05-06 04:30 | 42.01340 | -87.00648 | 13275 ft | 371 kts | 294° |
| 2026-05-06 04:30 | 42.02182 | -87.03857 | 12681 ft | 360 kts | 277° |
| 2026-05-06 04:30 | 42.02248 | -87.07117 | 12522 ft | 340 kts | 262° |
| 2026-05-06 04:31 | 42.01701 | -87.10070 | 12347 ft | 311 kts | 252° |
| 2026-05-06 04:31 | 42.01038 | -87.12693 | 12203 ft | 283 kts | 252° |
| 2026-05-06 04:31 | 42.00415 | -87.15112 | 11786 ft | 268 kts | 252° |
| 2026-05-06 04:31 | 41.99810 | -87.17453 | 11144 ft | 263 kts | 251° |
| 2026-05-06 04:32 | 41.99213 | -87.19760 | 10471 ft | 260 kts | 251° |
| 2026-05-06 04:32 | 41.98626 | -87.22018 | 10082 ft | 248 kts | 251° |
| 2026-05-06 04:32 | 41.98049 | -87.24235 | 10036 ft | 253 kts | 251° |
| 2026-05-06 04:32 | 41.97475 | -87.26447 | 9954 ft | 255 kts | 251° |
| 2026-05-06 04:33 | 41.96891 | -87.28696 | 9566 ft | 254 kts | 252° |
| 2026-05-06 04:33 | 41.96531 | -87.31014 | 9211 ft | 254 kts | 265° |
| 2026-05-06 04:33 | 41.96527 | -87.33398 | 8863 ft | 256 kts | 269° |
| 2026-05-06 04:33 | 41.96539 | -87.35793 | 8510 ft | 254 kts | 270° |
| 2026-05-06 04:34 | 41.96547 | -87.38099 | 8174 ft | 243 kts | 270° |
| 2026-05-06 04:34 | 41.96552 | -87.40405 | 7850 ft | 249 kts | 270° |
| 2026-05-06 04:34 | 41.96556 | -87.42734 | 7503 ft | 250 kts | 270° |
| 2026-05-06 04:34 | 41.96559 | -87.45077 | 7163 ft | 251 kts | 271° |
| 2026-05-06 04:35 | 41.96562 | -87.47427 | 7009 ft | 252 kts | 271° |
| 2026-05-06 04:35 | 41.96565 | -87.49783 | 6971 ft | 255 kts | 271° |
| 2026-05-06 04:35 | 41.96560 | -87.52184 | 6316 ft | 258 kts | 272° |
| 2026-05-06 04:35 | 41.96561 | -87.54579 | 5825 ft | 253 kts | 272° |
| 2026-05-06 04:36 | 41.96565 | -87.56944 | 5456 ft | 253 kts | 272° |
| 2026-05-06 04:36 | 41.96569 | -87.59280 | 5106 ft | 246 kts | 272° |
| 2026-05-06 04:36 | 41.96572 | -87.61516 | 4770 ft | 233 kts | 272° |
| 2026-05-06 04:36 | 41.96574 | -87.63663 | 4496 ft | 226 kts | 273° |
| 2026-05-06 04:37 | 41.96577 | -87.65762 | 4147 ft | 222 kts | 273° |
| 2026-05-06 04:37 | 41.96578 | -87.67782 | 3844 ft | 209 kts | 274° |
| 2026-05-06 04:37 | 41.96578 | -87.69640 | 3591 ft | 189 kts | 274° |
| 2026-05-06 04:37 | 41.96579 | -87.71343 | 3320 ft | 178 kts | 274° |
| 2026-05-06 04:38 | 41.96580 | -87.72984 | 3080 ft | 174 kts | 275° |
| 2026-05-06 04:38 | 41.96582 | -87.74600 | 2844 ft | 172 kts | 275° |
| 2026-05-06 04:38 | 41.96582 | -87.76206 | 2610 ft | 172 kts | 275° |
| 2026-05-06 04:38 | 41.96581 | -87.77764 | 2390 ft | 163 kts | 276° |
| 2026-05-06 04:39 | 41.96581 | -87.79267 | 2165 ft | 157 kts | 276° |
| 2026-05-06 04:39 | 41.96579 | -87.80665 | 1957 ft | 146 kts | 276° |
| 2026-05-06 04:39 | 41.96579 | -87.82011 | 1751 ft | 143 kts | 276° |
| 2026-05-06 04:39 | 41.96580 | -87.83340 | 1526 ft | 142 kts | 275° |
| 2026-05-06 04:40 | 41.96577 | -87.84660 | 1351 ft | 141 kts | 273° |
| 2026-05-06 04:40 | 41.96583 | -87.85984 | 1182 ft | 142 kts | 273° |
| 2026-05-06 04:40 | 41.96586 | -87.87306 | 994 ft | 141 kts | 272° |
| 2026-05-06 04:40 | 41.96572 | -87.88629 | 805 ft | 141 kts | 273° |
| 2026-05-06 04:41 | 41.96576 | -87.89946 | 680 ft | 136 kts | 274° |
| 2026-05-06 04:41 | 41.96575 | -87.91047 | 670 ft | 95 kts | 270° |
| 2026-05-06 04:41 | 41.96574 | -87.91706 | 668 ft | 46 kts | 270° |
| 2026-05-06 04:41 | 41.96574 | -87.91990 | 669 ft | 20 kts | 271° |
| 2026-05-06 04:42 | 41.96649 | -87.92081 | 669 ft | 17 kts | 359° |
| 2026-05-06 04:42 | 41.96752 | -87.92081 | 668 ft | 13 kts | 360° |
| 2026-05-06 04:42 | 41.96780 | -87.92081 | 668 ft | 0 kts | 0° |
| 2026-05-06 04:43 | 41.96782 | -87.92081 | 668 ft | 1 kts | 0° |
| 2026-05-06 04:43 | 41.96825 | -87.92081 | 668 ft | 12 kts | 360° |
| 2026-05-06 04:43 | 41.96926 | -87.92081 | 669 ft | 15 kts | 360° |
| 2026-05-06 04:43 | 41.97035 | -87.92082 | 669 ft | 16 kts | 360° |
| 2026-05-06 04:44 | 41.97144 | -87.92053 | 668 ft | 17 kts | 52° |
| 2026-05-06 04:44 | 41.97155 | -87.91897 | 669 ft | 18 kts | 90° |
| 2026-05-06 04:44 | 41.97155 | -87.91782 | 669 ft | 19 kts | 90° |
| 2026-05-06 04:44 | 41.97155 | -87.91541 | 669 ft | 20 kts | 90° |
| 2026-05-06 04:45 | 41.97157 | -87.91347 | 669 ft | 21 kts | 88° |
| 2026-05-06 04:45 | 41.97200 | -87.91230 | 669 ft | 22 kts | 50° |
| 2026-05-06 04:45 | 41.97243 | -87.91073 | 667 ft | 12 kts | 137° |
| 2026-05-06 04:45 | 41.97187 | -87.91010 | 669 ft | 16 kts | 137° |
| 2026-05-06 04:46 | 41.97073 | -87.90880 | 668 ft | 23 kts | 138° |
| 2026-05-06 04:46 | 41.97041 | -87.90676 | 668 ft | 23 kts | 90° |
| 2026-05-06 04:46 | 41.97049 | -87.90466 | 668 ft | 15 kts | 51° |
| 2026-05-06 04:46 | 41.97119 | -87.90455 | 669 ft | 13 kts | 31° |
| 2026-05-06 04:47 | 41.97136 | -87.90330 | 669 ft | 15 kts | 91° |
| 2026-05-06 04:47 | 41.97136 | -87.90184 | 669 ft | 16 kts | 90° |
| 2026-05-06 04:47 | 41.97137 | -87.90025 | 669 ft | 18 kts | 90° |
| 2026-05-06 04:47 | 41.97147 | -87.89857 | 668 ft | 19 kts | 75° |
| 2026-05-06 04:48 | 41.97205 | -87.89715 | 669 ft | 15 kts | 38° |
| 2026-05-06 04:48 | 41.97274 | -87.89745 | 669 ft | 10 kts | 324° |
| 2026-05-06 04:48 | 41.97323 | -87.89747 | 669 ft | 6 kts | 19° |
| 2026-05-06 04:48 | 41.97356 | -87.89731 | 667 ft | 4 kts | 19° |
| 2026-05-06 04:49 | 41.97360 | -87.89729 | 668 ft | 0 kts | 19° |
| 2026-05-06 05:20 | 41.97345 | -87.89737 | 666 ft | 4 kts | 35° |
| 2026-05-06 05:21 | 41.97327 | -87.89762 | 666 ft | 4 kts | 68° |
| 2026-05-06 05:21 | 41.97322 | -87.89797 | 665 ft | 4 kts | 92° |
| 2026-05-06 05:21 | 41.97326 | -87.89831 | 667 ft | 4 kts | 118° |
| 2026-05-06 05:21 | 41.97337 | -87.89850 | 664 ft | 0 kts | 145° |